sensor_id;sensor_type;location;lat;lon;timestamp;P1;durP1;ratioP1;P2;durP2;ratioP2
8640;SDS011;4358;42.100;25.222;2023-08-07T00:01:35;0.83;;;0.83;;
8640;SDS011;4358;42.100;25.222;2023-08-07T00:04:03;1.37;;;0.80;;
8640;SDS011;4358;42.100;25.222;2023-08-07T00:06:31;2.47;;;0.70;;
8640;SDS011;4358;42.100;25.222;2023-08-07T00:08:57;0.70;;;0.70;;
8640;SDS011;4358;42.100;25.222;2023-08-07T00:11:24;0.90;;;0.77;;
8640;SDS011;4358;42.100;25.222;2023-08-07T00:13:53;0.70;;;0.70;;
8640;SDS011;4358;42.100;25.222;2023-08-07T00:16:19;0.83;;;0.70;;
8640;SDS011;4358;42.100;25.222;2023-08-07T00:18:46;0.97;;;0.90;;
8640;SDS011;4358;42.100;25.222;2023-08-07T00:21:15;1.00;;;0.90;;
8640;SDS011;4358;42.100;25.222;2023-08-07T00:23:41;0.80;;;0.80;;
8640;SDS011;4358;42.100;25.222;2023-08-07T00:26:08;1.47;;;0.90;;
8640;SDS011;4358;42.100;25.222;2023-08-07T00:28:35;1.50;;;0.80;;
8640;SDS011;4358;42.100;25.222;2023-08-07T00:31:02;0.70;;;0.70;;
8640;SDS011;4358;42.100;25.222;2023-08-07T00:33:29;0.90;;;0.90;;
8640;SDS011;4358;42.100;25.222;2023-08-07T00:35:56;0.87;;;0.80;;
8640;SDS011;4358;42.100;25.222;2023-08-07T00:38:24;0.70;;;0.70;;
8640;SDS011;4358;42.100;25.222;2023-08-07T00:40:51;2.20;;;1.30;;
8640;SDS011;4358;42.100;25.222;2023-08-07T00:43:17;2.30;;;1.87;;
8640;SDS011;4358;42.100;25.222;2023-08-07T00:45:45;1.93;;;1.20;;
8640;SDS011;4358;42.100;25.222;2023-08-07T00:48:13;1.40;;;1.30;;
8640;SDS011;4358;42.100;25.222;2023-08-07T00:50:42;0.97;;;0.97;;
8640;SDS011;4358;42.100;25.222;2023-08-07T00:53:12;1.33;;;0.90;;
8640;SDS011;4358;42.100;25.222;2023-08-07T00:55:41;0.90;;;0.90;;
8640;SDS011;4358;42.100;25.222;2023-08-07T00:58:08;0.80;;;0.80;;
8640;SDS011;4358;42.100;25.222;2023-08-07T01:00:35;1.10;;;1.00;;
8640;SDS011;4358;42.100;25.222;2023-08-07T01:03:04;0.97;;;0.70;;
8640;SDS011;4358;42.100;25.222;2023-08-07T01:05:31;1.53;;;1.00;;
8640;SDS011;4358;42.100;25.222;2023-08-07T01:07:58;0.97;;;0.87;;
8640;SDS011;4358;42.100;25.222;2023-08-07T01:10:31;2.10;;;1.03;;
8640;SDS011;4358;42.100;25.222;2023-08-07T01:13:10;1.10;;;1.00;;
8640;SDS011;4358;42.100;25.222;2023-08-07T01:15:43;1.00;;;0.93;;
8640;SDS011;4358;42.100;25.222;2023-08-07T01:18:11;1.00;;;1.00;;
8640;SDS011;4358;42.100;25.222;2023-08-07T01:20:39;1.10;;;0.90;;
8640;SDS011;4358;42.100;25.222;2023-08-07T01:23:08;1.20;;;0.87;;
8640;SDS011;4358;42.100;25.222;2023-08-07T01:25:35;1.13;;;1.00;;
8640;SDS011;4358;42.100;25.222;2023-08-07T01:28:05;0.90;;;0.90;;
8640;SDS011;4358;42.100;25.222;2023-08-07T01:30:40;1.00;;;0.90;;
8640;SDS011;4358;42.100;25.222;2023-08-07T01:33:12;1.17;;;0.90;;
8640;SDS011;4358;42.100;25.222;2023-08-07T01:35:47;1.00;;;0.90;;
8640;SDS011;4358;42.100;25.222;2023-08-07T01:38:19;0.83;;;0.83;;
8640;SDS011;4358;42.100;25.222;2023-08-07T01:40:50;0.80;;;0.70;;
8640;SDS011;4358;42.100;25.222;2023-08-07T01:43:18;1.10;;;1.00;;
8640;SDS011;4358;42.100;25.222;2023-08-07T01:45:45;1.07;;;1.00;;
8640;SDS011;4358;42.100;25.222;2023-08-07T01:48:12;1.10;;;1.00;;
8640;SDS011;4358;42.100;25.222;2023-08-07T01:50:39;1.03;;;0.93;;
8640;SDS011;4358;42.100;25.222;2023-08-07T01:53:06;1.00;;;1.00;;
8640;SDS011;4358;42.100;25.222;2023-08-07T01:55:34;1.07;;;1.00;;
8640;SDS011;4358;42.100;25.222;2023-08-07T01:58:01;1.20;;;1.10;;
8640;SDS011;4358;42.100;25.222;2023-08-07T02:00:28;1.30;;;1.20;;
8640;SDS011;4358;42.100;25.222;2023-08-07T02:02:55;0.93;;;0.93;;
8640;SDS011;4358;42.100;25.222;2023-08-07T02:05:22;1.17;;;1.07;;
8640;SDS011;4358;42.100;25.222;2023-08-07T02:07:48;1.97;;;1.10;;
8640;SDS011;4358;42.100;25.222;2023-08-07T02:10:15;2.40;;;1.10;;
8640;SDS011;4358;42.100;25.222;2023-08-07T02:12:44;1.40;;;1.30;;
8640;SDS011;4358;42.100;25.222;2023-08-07T02:15:10;1.40;;;1.30;;
8640;SDS011;4358;42.100;25.222;2023-08-07T02:17:37;1.10;;;1.00;;
8640;SDS011;4358;42.100;25.222;2023-08-07T02:20:06;1.30;;;1.20;;
8640;SDS011;4358;42.100;25.222;2023-08-07T02:22:33;2.37;;;1.30;;
8640;SDS011;4358;42.100;25.222;2023-08-07T02:25:00;1.37;;;1.27;;
8640;SDS011;4358;42.100;25.222;2023-08-07T02:27:27;1.50;;;1.20;;
8640;SDS011;4358;42.100;25.222;2023-08-07T02:29:55;1.90;;;1.40;;
8640;SDS011;4358;42.100;25.222;2023-08-07T02:32:22;1.10;;;1.00;;
8640;SDS011;4358;42.100;25.222;2023-08-07T02:34:49;1.60;;;1.50;;
8640;SDS011;4358;42.100;25.222;2023-08-07T02:37:16;1.40;;;1.30;;
8640;SDS011;4358;42.100;25.222;2023-08-07T02:39:44;1.50;;;1.40;;
8640;SDS011;4358;42.100;25.222;2023-08-07T02:42:10;1.30;;;1.20;;
8640;SDS011;4358;42.100;25.222;2023-08-07T02:44:37;1.60;;;1.50;;
8640;SDS011;4358;42.100;25.222;2023-08-07T02:47:06;1.50;;;1.37;;
8640;SDS011;4358;42.100;25.222;2023-08-07T02:49:33;1.43;;;1.33;;
8640;SDS011;4358;42.100;25.222;2023-08-07T02:51:59;1.63;;;1.53;;
8640;SDS011;4358;42.100;25.222;2023-08-07T02:54:26;1.90;;;1.50;;
8640;SDS011;4358;42.100;25.222;2023-08-07T02:56:53;1.87;;;1.33;;
8640;SDS011;4358;42.100;25.222;2023-08-07T02:59:20;1.87;;;1.50;;
8640;SDS011;4358;42.100;25.222;2023-08-07T03:01:46;1.70;;;1.57;;
8640;SDS011;4358;42.100;25.222;2023-08-07T03:04:15;2.40;;;1.50;;
8640;SDS011;4358;42.100;25.222;2023-08-07T03:06:41;1.50;;;1.40;;
8640;SDS011;4358;42.100;25.222;2023-08-07T03:09:08;2.30;;;2.10;;
8640;SDS011;4358;42.100;25.222;2023-08-07T03:11:35;1.60;;;1.50;;
8640;SDS011;4358;42.100;25.222;2023-08-07T03:14:02;2.30;;;2.00;;
8640;SDS011;4358;42.100;25.222;2023-08-07T03:16:29;2.33;;;1.93;;
8640;SDS011;4358;42.100;25.222;2023-08-07T03:18:56;2.10;;;1.90;;
8640;SDS011;4358;42.100;25.222;2023-08-07T03:21:25;2.07;;;1.90;;
8640;SDS011;4358;42.100;25.222;2023-08-07T03:23:52;2.50;;;2.30;;
8640;SDS011;4358;42.100;25.222;2023-08-07T03:26:19;2.47;;;2.00;;
8640;SDS011;4358;42.100;25.222;2023-08-07T03:28:45;2.33;;;2.07;;
8640;SDS011;4358;42.100;25.222;2023-08-07T03:31:13;2.17;;;1.97;;
8640;SDS011;4358;42.100;25.222;2023-08-07T03:33:40;2.00;;;1.90;;
8640;SDS011;4358;42.100;25.222;2023-08-07T03:36:07;3.33;;;2.23;;
8640;SDS011;4358;42.100;25.222;2023-08-07T03:38:36;2.23;;;1.90;;
8640;SDS011;4358;42.100;25.222;2023-08-07T03:41:03;1.87;;;1.73;;
8640;SDS011;4358;42.100;25.222;2023-08-07T03:43:30;2.17;;;2.00;;
8640;SDS011;4358;42.100;25.222;2023-08-07T03:45:56;2.10;;;1.90;;
8640;SDS011;4358;42.100;25.222;2023-08-07T03:48:23;2.03;;;1.83;;
8640;SDS011;4358;42.100;25.222;2023-08-07T03:50:50;2.30;;;2.10;;
8640;SDS011;4358;42.100;25.222;2023-08-07T03:53:17;2.00;;;1.80;;
8640;SDS011;4358;42.100;25.222;2023-08-07T03:55:50;2.80;;;2.30;;
8640;SDS011;4358;42.100;25.222;2023-08-07T03:58:17;2.40;;;2.20;;
8640;SDS011;4358;42.100;25.222;2023-08-07T04:00:44;2.43;;;2.23;;
8640;SDS011;4358;42.100;25.222;2023-08-07T04:03:10;2.20;;;2.00;;
8640;SDS011;4358;42.100;25.222;2023-08-07T04:05:37;2.40;;;2.20;;
8640;SDS011;4358;42.100;25.222;2023-08-07T04:08:04;2.73;;;2.20;;
8640;SDS011;4358;42.100;25.222;2023-08-07T04:10:31;2.43;;;2.23;;
8640;SDS011;4358;42.100;25.222;2023-08-07T04:12:59;2.50;;;2.30;;
8640;SDS011;4358;42.100;25.222;2023-08-07T04:15:26;2.20;;;2.10;;
8640;SDS011;4358;42.100;25.222;2023-08-07T04:17:53;2.30;;;2.10;;
8640;SDS011;4358;42.100;25.222;2023-08-07T04:20:19;2.20;;;2.00;;
8640;SDS011;4358;42.100;25.222;2023-08-07T04:22:46;2.10;;;2.00;;
8640;SDS011;4358;42.100;25.222;2023-08-07T04:25:13;2.67;;;2.20;;
8640;SDS011;4358;42.100;25.222;2023-08-07T04:27:40;2.97;;;2.67;;
8640;SDS011;4358;42.100;25.222;2023-08-07T04:30:09;2.37;;;2.17;;
8640;SDS011;4358;42.100;25.222;2023-08-07T04:32:36;3.90;;;2.20;;
8640;SDS011;4358;42.100;25.222;2023-08-07T04:35:04;2.30;;;2.10;;
8640;SDS011;4358;42.100;25.222;2023-08-07T04:37:31;2.23;;;2.10;;
8640;SDS011;4358;42.100;25.222;2023-08-07T04:39:58;2.47;;;2.20;;
8640;SDS011;4358;42.100;25.222;2023-08-07T04:42:26;3.37;;;2.07;;
8640;SDS011;4358;42.100;25.222;2023-08-07T04:44:52;2.30;;;2.10;;
8640;SDS011;4358;42.100;25.222;2023-08-07T04:47:21;5.23;;;2.10;;
8640;SDS011;4358;42.100;25.222;2023-08-07T04:49:48;1.90;;;1.77;;
8640;SDS011;4358;42.100;25.222;2023-08-07T04:52:15;2.27;;;2.00;;
8640;SDS011;4358;42.100;25.222;2023-08-07T04:54:42;1.93;;;1.83;;
8640;SDS011;4358;42.100;25.222;2023-08-07T04:57:09;2.20;;;1.80;;
8640;SDS011;4358;42.100;25.222;2023-08-07T04:59:35;2.00;;;1.80;;
8640;SDS011;4358;42.100;25.222;2023-08-07T05:02:02;1.50;;;1.40;;
8640;SDS011;4358;42.100;25.222;2023-08-07T05:04:31;1.90;;;1.80;;
8640;SDS011;4358;42.100;25.222;2023-08-07T05:06:58;1.80;;;1.70;;
8640;SDS011;4358;42.100;25.222;2023-08-07T05:09:25;1.87;;;1.70;;
8640;SDS011;4358;42.100;25.222;2023-08-07T05:11:52;1.67;;;1.57;;
8640;SDS011;4358;42.100;25.222;2023-08-07T05:14:18;1.60;;;1.50;;
8640;SDS011;4358;42.100;25.222;2023-08-07T05:16:46;1.67;;;1.57;;
8640;SDS011;4358;42.100;25.222;2023-08-07T05:19:13;1.57;;;1.47;;
8640;SDS011;4358;42.100;25.222;2023-08-07T05:21:41;1.70;;;1.60;;
8640;SDS011;4358;42.100;25.222;2023-08-07T05:24:08;1.63;;;1.40;;
8640;SDS011;4358;42.100;25.222;2023-08-07T05:26:35;1.40;;;1.30;;
8640;SDS011;4358;42.100;25.222;2023-08-07T05:29:01;2.20;;;1.40;;
8640;SDS011;4358;42.100;25.222;2023-08-07T05:31:29;1.57;;;1.33;;
8640;SDS011;4358;42.100;25.222;2023-08-07T05:33:55;1.93;;;1.60;;
8640;SDS011;4358;42.100;25.222;2023-08-07T05:36:22;1.57;;;1.47;;
8640;SDS011;4358;42.100;25.222;2023-08-07T05:38:50;1.37;;;1.27;;
8640;SDS011;4358;42.100;25.222;2023-08-07T05:41:17;1.60;;;1.50;;
8640;SDS011;4358;42.100;25.222;2023-08-07T05:43:45;1.50;;;1.40;;
8640;SDS011;4358;42.100;25.222;2023-08-07T05:46:12;1.83;;;1.73;;
8640;SDS011;4358;42.100;25.222;2023-08-07T05:48:38;1.57;;;1.47;;
8640;SDS011;4358;42.100;25.222;2023-08-07T05:51:05;3.20;;;1.40;;
8640;SDS011;4358;42.100;25.222;2023-08-07T05:53:33;1.50;;;1.40;;
8640;SDS011;4358;42.100;25.222;2023-08-07T05:56:02;1.67;;;1.57;;
8640;SDS011;4358;42.100;25.222;2023-08-07T05:58:29;3.23;;;1.50;;
8640;SDS011;4358;42.100;25.222;2023-08-07T06:00:56;1.77;;;1.67;;
8640;SDS011;4358;42.100;25.222;2023-08-07T06:03:23;1.57;;;1.47;;
8640;SDS011;4358;42.100;25.222;2023-08-07T06:05:50;1.37;;;1.27;;
8640;SDS011;4358;42.100;25.222;2023-08-07T06:08:16;1.60;;;1.50;;
8640;SDS011;4358;42.100;25.222;2023-08-07T06:10:43;1.60;;;1.50;;
8640;SDS011;4358;42.100;25.222;2023-08-07T06:13:11;2.07;;;1.50;;
8640;SDS011;4358;42.100;25.222;2023-08-07T06:15:38;1.70;;;1.60;;
8640;SDS011;4358;42.100;25.222;2023-08-07T06:18:05;1.70;;;1.40;;
8640;SDS011;4358;42.100;25.222;2023-08-07T06:20:33;2.37;;;1.60;;
8640;SDS011;4358;42.100;25.222;2023-08-07T06:23:00;1.70;;;1.60;;
8640;SDS011;4358;42.100;25.222;2023-08-07T06:25:27;1.40;;;1.30;;
8640;SDS011;4358;42.100;25.222;2023-08-07T06:27:53;1.43;;;1.27;;
8640;SDS011;4358;42.100;25.222;2023-08-07T06:30:22;1.70;;;1.50;;
8640;SDS011;4358;42.100;25.222;2023-08-07T06:32:48;2.07;;;1.50;;
8640;SDS011;4358;42.100;25.222;2023-08-07T06:35:15;1.50;;;1.40;;
8640;SDS011;4358;42.100;25.222;2023-08-07T06:37:42;1.47;;;1.30;;
8640;SDS011;4358;42.100;25.222;2023-08-07T06:40:09;1.40;;;1.30;;
8640;SDS011;4358;42.100;25.222;2023-08-07T06:42:36;2.40;;;1.67;;
8640;SDS011;4358;42.100;25.222;2023-08-07T06:45:03;2.00;;;1.23;;
8640;SDS011;4358;42.100;25.222;2023-08-07T06:47:32;1.47;;;1.33;;
8640;SDS011;4358;42.100;25.222;2023-08-07T06:49:59;1.50;;;1.37;;
8640;SDS011;4358;42.100;25.222;2023-08-07T06:52:26;1.77;;;1.40;;
8640;SDS011;4358;42.100;25.222;2023-08-07T06:54:53;3.83;;;1.40;;
8640;SDS011;4358;42.100;25.222;2023-08-07T06:57:20;1.30;;;1.20;;
8640;SDS011;4358;42.100;25.222;2023-08-07T06:59:46;3.20;;;1.47;;
8640;SDS011;4358;42.100;25.222;2023-08-07T07:02:13;1.50;;;1.40;;
8640;SDS011;4358;42.100;25.222;2023-08-07T07:04:41;1.40;;;1.30;;
8640;SDS011;4358;42.100;25.222;2023-08-07T07:07:08;1.50;;;1.40;;
8640;SDS011;4358;42.100;25.222;2023-08-07T07:09:35;1.33;;;1.23;;
8640;SDS011;4358;42.100;25.222;2023-08-07T07:12:02;1.43;;;1.33;;
8640;SDS011;4358;42.100;25.222;2023-08-07T07:14:29;1.77;;;1.67;;
8640;SDS011;4358;42.100;25.222;2023-08-07T07:16:56;1.50;;;1.40;;
8640;SDS011;4358;42.100;25.222;2023-08-07T07:19:23;1.50;;;1.40;;
8640;SDS011;4358;42.100;25.222;2023-08-07T07:21:51;1.40;;;1.30;;
8640;SDS011;4358;42.100;25.222;2023-08-07T07:24:18;1.60;;;1.50;;
8640;SDS011;4358;42.100;25.222;2023-08-07T07:26:45;1.50;;;1.40;;
8640;SDS011;4358;42.100;25.222;2023-08-07T07:29:12;1.30;;;1.20;;
8640;SDS011;4358;42.100;25.222;2023-08-07T07:31:39;1.37;;;1.27;;
8640;SDS011;4358;42.100;25.222;2023-08-07T07:34:05;2.93;;;1.40;;
8640;SDS011;4358;42.100;25.222;2023-08-07T07:36:32;1.30;;;1.20;;
8640;SDS011;4358;42.100;25.222;2023-08-07T07:39:00;1.90;;;1.40;;
8640;SDS011;4358;42.100;25.222;2023-08-07T07:41:27;1.30;;;1.20;;
8640;SDS011;4358;42.100;25.222;2023-08-07T07:43:54;1.97;;;1.33;;
8640;SDS011;4358;42.100;25.222;2023-08-07T07:46:21;1.40;;;1.30;;
8640;SDS011;4358;42.100;25.222;2023-08-07T07:48:48;1.60;;;1.50;;
8640;SDS011;4358;42.100;25.222;2023-08-07T07:51:15;1.20;;;1.10;;
8640;SDS011;4358;42.100;25.222;2023-08-07T07:53:42;5.33;;;1.40;;
8640;SDS011;4358;42.100;25.222;2023-08-07T07:56:10;1.40;;;1.30;;
8640;SDS011;4358;42.100;25.222;2023-08-07T07:58:37;1.00;;;1.00;;
8640;SDS011;4358;42.100;25.222;2023-08-07T08:01:06;1.90;;;1.53;;
8640;SDS011;4358;42.100;25.222;2023-08-07T08:03:33;1.80;;;1.20;;
8640;SDS011;4358;42.100;25.222;2023-08-07T08:06:00;1.83;;;1.20;;
8640;SDS011;4358;42.100;25.222;2023-08-07T08:08:27;7.70;;;1.30;;
8640;SDS011;4358;42.100;25.222;2023-08-07T08:10:54;0.90;;;0.90;;
8640;SDS011;4358;42.100;25.222;2023-08-07T08:13:22;2.50;;;1.37;;
8640;SDS011;4358;42.100;25.222;2023-08-07T08:15:50;1.20;;;1.10;;
8640;SDS011;4358;42.100;25.222;2023-08-07T08:18:17;3.00;;;1.10;;
8640;SDS011;4358;42.100;25.222;2023-08-07T08:20:44;1.30;;;1.20;;
8640;SDS011;4358;42.100;25.222;2023-08-07T08:23:11;1.20;;;1.00;;
8640;SDS011;4358;42.100;25.222;2023-08-07T08:25:38;2.10;;;1.13;;
8640;SDS011;4358;42.100;25.222;2023-08-07T08:28:05;1.20;;;1.10;;
8640;SDS011;4358;42.100;25.222;2023-08-07T08:30:33;1.17;;;1.10;;
8640;SDS011;4358;42.100;25.222;2023-08-07T08:33:00;1.67;;;1.53;;
8640;SDS011;4358;42.100;25.222;2023-08-07T08:35:27;1.30;;;1.20;;
8640;SDS011;4358;42.100;25.222;2023-08-07T08:37:54;1.40;;;1.30;;
8640;SDS011;4358;42.100;25.222;2023-08-07T08:40:21;1.07;;;1.07;;
8640;SDS011;4358;42.100;25.222;2023-08-07T08:42:48;2.17;;;1.20;;
8640;SDS011;4358;42.100;25.222;2023-08-07T08:45:16;1.00;;;1.00;;
8640;SDS011;4358;42.100;25.222;2023-08-07T08:47:46;1.27;;;1.17;;
8640;SDS011;4358;42.100;25.222;2023-08-07T08:50:17;1.00;;;1.00;;
8640;SDS011;4358;42.100;25.222;2023-08-07T08:52:45;1.13;;;1.03;;
8640;SDS011;4358;42.100;25.222;2023-08-07T08:55:12;1.30;;;1.20;;
8640;SDS011;4358;42.100;25.222;2023-08-07T08:57:40;1.83;;;1.10;;
8640;SDS011;4358;42.100;25.222;2023-08-07T09:00:08;1.67;;;1.23;;
8640;SDS011;4358;42.100;25.222;2023-08-07T09:02:43;1.20;;;1.10;;
8640;SDS011;4358;42.100;25.222;2023-08-07T09:05:11;1.00;;;1.00;;
8640;SDS011;4358;42.100;25.222;2023-08-07T09:07:38;2.00;;;1.00;;
8640;SDS011;4358;42.100;25.222;2023-08-07T09:10:06;2.27;;;0.90;;
8640;SDS011;4358;42.100;25.222;2023-08-07T09:12:34;1.17;;;1.07;;
8640;SDS011;4358;42.100;25.222;2023-08-07T09:15:06;0.90;;;0.90;;
8640;SDS011;4358;42.100;25.222;2023-08-07T09:17:40;1.40;;;1.20;;
8640;SDS011;4358;42.100;25.222;2023-08-07T09:20:09;0.70;;;0.70;;
8640;SDS011;4358;42.100;25.222;2023-08-07T09:22:38;0.80;;;0.70;;
8640;SDS011;4358;42.100;25.222;2023-08-07T09:25:06;0.80;;;0.80;;
8640;SDS011;4358;42.100;25.222;2023-08-07T09:27:35;0.80;;;0.80;;
8640;SDS011;4358;42.100;25.222;2023-08-07T09:30:04;1.90;;;0.70;;
8640;SDS011;4358;42.100;25.222;2023-08-07T09:32:33;1.27;;;0.83;;
8640;SDS011;4358;42.100;25.222;2023-08-07T09:35:01;0.90;;;0.90;;
8640;SDS011;4358;42.100;25.222;2023-08-07T09:37:28;0.80;;;0.80;;
8640;SDS011;4358;42.100;25.222;2023-08-07T09:39:57;1.23;;;0.83;;
8640;SDS011;4358;42.100;25.222;2023-08-07T09:42:26;1.40;;;1.10;;
8640;SDS011;4358;42.100;25.222;2023-08-07T09:44:59;1.10;;;1.00;;
8640;SDS011;4358;42.100;25.222;2023-08-07T09:47:26;0.87;;;0.87;;
8640;SDS011;4358;42.100;25.222;2023-08-07T09:49:54;1.50;;;1.00;;
8640;SDS011;4358;42.100;25.222;2023-08-07T09:52:21;0.90;;;0.80;;
8640;SDS011;4358;42.100;25.222;2023-08-07T09:54:50;0.97;;;0.97;;
8640;SDS011;4358;42.100;25.222;2023-08-07T09:57:18;1.10;;;1.00;;
8640;SDS011;4358;42.100;25.222;2023-08-07T09:59:46;0.93;;;0.70;;
8640;SDS011;4358;42.100;25.222;2023-08-07T10:02:16;0.85;;;0.85;;
8640;SDS011;4358;42.100;25.222;2023-08-07T10:04:43;1.23;;;0.90;;
8640;SDS011;4358;42.100;25.222;2023-08-07T10:07:10;1.00;;;0.90;;
8640;SDS011;4358;42.100;25.222;2023-08-07T10:09:39;0.90;;;0.90;;
8640;SDS011;4358;42.100;25.222;2023-08-07T10:12:07;1.10;;;1.00;;
8640;SDS011;4358;42.100;25.222;2023-08-07T10:14:36;0.90;;;0.90;;
8640;SDS011;4358;42.100;25.222;2023-08-07T10:17:03;0.98;;;0.80;;
8640;SDS011;4358;42.100;25.222;2023-08-07T10:19:31;1.00;;;0.90;;
8640;SDS011;4358;42.100;25.222;2023-08-07T10:21:58;1.77;;;0.80;;
8640;SDS011;4358;42.100;25.222;2023-08-07T10:24:26;0.90;;;0.90;;
8640;SDS011;4358;42.100;25.222;2023-08-07T10:26:54;2.65;;;0.95;;
8640;SDS011;4358;42.100;25.222;2023-08-07T10:29:24;1.02;;;0.98;;
8640;SDS011;4358;42.100;25.222;2023-08-07T10:31:55;0.85;;;0.85;;
8640;SDS011;4358;42.100;25.222;2023-08-07T10:34:24;1.73;;;0.90;;
8640;SDS011;4358;42.100;25.222;2023-08-07T10:36:51;0.90;;;0.90;;
8640;SDS011;4358;42.100;25.222;2023-08-07T10:39:18;1.00;;;0.90;;
8640;SDS011;4358;42.100;25.222;2023-08-07T10:41:46;0.73;;;0.73;;
8640;SDS011;4358;42.100;25.222;2023-08-07T10:44:19;0.80;;;0.80;;
8640;SDS011;4358;42.100;25.222;2023-08-07T10:46:47;4.43;;;1.00;;
8640;SDS011;4358;42.100;25.222;2023-08-07T10:49:32;2.38;;;0.85;;
8640;SDS011;4358;42.100;25.222;2023-08-07T10:52:07;1.20;;;1.10;;
8640;SDS011;4358;42.100;25.222;2023-08-07T10:54:39;0.95;;;0.90;;
8640;SDS011;4358;42.100;25.222;2023-08-07T10:57:11;2.20;;;1.17;;
8640;SDS011;4358;42.100;25.222;2023-08-07T10:59:43;1.00;;;0.90;;
8640;SDS011;4358;42.100;25.222;2023-08-07T11:02:11;1.00;;;0.90;;
8640;SDS011;4358;42.100;25.222;2023-08-07T11:04:41;0.80;;;0.80;;
8640;SDS011;4358;42.100;25.222;2023-08-07T11:07:09;1.00;;;0.90;;
8640;SDS011;4358;42.100;25.222;2023-08-07T11:09:48;0.80;;;0.80;;
8640;SDS011;4358;42.100;25.222;2023-08-07T11:12:15;1.00;;;1.00;;
8640;SDS011;4358;42.100;25.222;2023-08-07T11:14:42;6.32;;;1.08;;
8640;SDS011;4358;42.100;25.222;2023-08-07T11:17:09;1.17;;;1.00;;
8640;SDS011;4358;42.100;25.222;2023-08-07T11:19:36;1.35;;;1.00;;
8640;SDS011;4358;42.100;25.222;2023-08-07T11:22:04;0.98;;;0.93;;
8640;SDS011;4358;42.100;25.222;2023-08-07T11:24:32;1.50;;;1.40;;
8640;SDS011;4358;42.100;25.222;2023-08-07T11:26:58;1.02;;;1.02;;
8640;SDS011;4358;42.100;25.222;2023-08-07T11:29:26;1.10;;;1.08;;
8640;SDS011;4358;42.100;25.222;2023-08-07T11:31:52;1.60;;;1.23;;
8640;SDS011;4358;42.100;25.222;2023-08-07T11:34:19;1.60;;;1.30;;
8640;SDS011;4358;42.100;25.222;2023-08-07T11:36:47;1.20;;;1.10;;
8640;SDS011;4358;42.100;25.222;2023-08-07T11:39:15;1.52;;;1.00;;
8640;SDS011;4358;42.100;25.222;2023-08-07T11:41:45;1.10;;;1.00;;
8640;SDS011;4358;42.100;25.222;2023-08-07T11:44:12;0.93;;;0.93;;
8640;SDS011;4358;42.100;25.222;2023-08-07T11:46:39;2.47;;;1.10;;
8640;SDS011;4358;42.100;25.222;2023-08-07T11:49:06;0.90;;;0.90;;
8640;SDS011;4358;42.100;25.222;2023-08-07T11:51:35;1.13;;;1.02;;
8640;SDS011;4358;42.100;25.222;2023-08-07T11:54:02;1.30;;;1.20;;
8640;SDS011;4358;42.100;25.222;2023-08-07T11:56:31;1.33;;;1.23;;
8640;SDS011;4358;42.100;25.222;2023-08-07T11:58:57;1.65;;;1.05;;
8640;SDS011;4358;42.100;25.222;2023-08-07T12:01:25;1.20;;;1.10;;
8640;SDS011;4358;42.100;25.222;2023-08-07T12:03:54;1.02;;;1.00;;
8640;SDS011;4358;42.100;25.222;2023-08-07T12:06:22;1.48;;;1.38;;
8640;SDS011;4358;42.100;25.222;2023-08-07T12:08:52;2.78;;;1.20;;
8640;SDS011;4358;42.100;25.222;2023-08-07T12:11:21;2.60;;;1.40;;
8640;SDS011;4358;42.100;25.222;2023-08-07T12:13:50;1.20;;;1.10;;
8640;SDS011;4358;42.100;25.222;2023-08-07T12:16:17;1.30;;;1.20;;
8640;SDS011;4358;42.100;25.222;2023-08-07T12:18:44;1.58;;;1.15;;
8640;SDS011;4358;42.100;25.222;2023-08-07T12:21:13;1.23;;;1.10;;
8640;SDS011;4358;42.100;25.222;2023-08-07T12:23:41;1.40;;;1.20;;
8640;SDS011;4358;42.100;25.222;2023-08-07T12:26:08;1.60;;;1.50;;
8640;SDS011;4358;42.100;25.222;2023-08-07T12:28:35;3.20;;;1.42;;
8640;SDS011;4358;42.100;25.222;2023-08-07T12:31:04;3.75;;;1.17;;
8640;SDS011;4358;42.100;25.222;2023-08-07T12:33:32;1.40;;;1.25;;
8640;SDS011;4358;42.100;25.222;2023-08-07T12:35:59;2.45;;;1.48;;
8640;SDS011;4358;42.100;25.222;2023-08-07T12:38:27;2.33;;;1.25;;
8640;SDS011;4358;42.100;25.222;2023-08-07T12:40:54;1.95;;;1.40;;
8640;SDS011;4358;42.100;25.222;2023-08-07T12:43:21;1.20;;;1.10;;
8640;SDS011;4358;42.100;25.222;2023-08-07T12:45:48;1.40;;;1.20;;
8640;SDS011;4358;42.100;25.222;2023-08-07T12:48:16;1.38;;;1.27;;
8640;SDS011;4358;42.100;25.222;2023-08-07T12:50:43;1.48;;;1.38;;
8640;SDS011;4358;42.100;25.222;2023-08-07T12:53:10;1.50;;;1.40;;
8640;SDS011;4358;42.100;25.222;2023-08-07T12:55:37;2.45;;;1.50;;
8640;SDS011;4358;42.100;25.222;2023-08-07T12:58:04;5.03;;;1.67;;
8640;SDS011;4358;42.100;25.222;2023-08-07T13:00:30;2.40;;;2.20;;
8640;SDS011;4358;42.100;25.222;2023-08-07T13:02:57;2.78;;;1.55;;
8640;SDS011;4358;42.100;25.222;2023-08-07T13:05:27;1.70;;;1.10;;
8640;SDS011;4358;42.100;25.222;2023-08-07T13:07:54;1.42;;;1.33;;
8640;SDS011;4358;42.100;25.222;2023-08-07T13:10:23;1.52;;;1.42;;
8640;SDS011;4358;42.100;25.222;2023-08-07T13:12:53;1.33;;;1.23;;
8640;SDS011;4358;42.100;25.222;2023-08-07T13:15:20;1.20;;;1.10;;
8640;SDS011;4358;42.100;25.222;2023-08-07T13:17:46;1.48;;;1.38;;
8640;SDS011;4358;42.100;25.222;2023-08-07T13:20:13;1.48;;;1.38;;
8640;SDS011;4358;42.100;25.222;2023-08-07T13:22:42;1.70;;;1.60;;
8640;SDS011;4358;42.100;25.222;2023-08-07T13:25:11;2.10;;;1.90;;
8640;SDS011;4358;42.100;25.222;2023-08-07T13:27:39;2.53;;;2.15;;
8640;SDS011;4358;42.100;25.222;2023-08-07T13:30:06;1.70;;;1.52;;
8640;SDS011;4358;42.100;25.222;2023-08-07T13:32:34;1.55;;;1.20;;
8640;SDS011;4358;42.100;25.222;2023-08-07T13:35:01;1.60;;;1.50;;
8640;SDS011;4358;42.100;25.222;2023-08-07T13:37:28;1.80;;;1.55;;
8640;SDS011;4358;42.100;25.222;2023-08-07T13:39:57;2.40;;;2.10;;
8640;SDS011;4358;42.100;25.222;2023-08-07T13:42:24;1.70;;;1.60;;
8640;SDS011;4358;42.100;25.222;2023-08-07T13:44:53;1.50;;;1.38;;
8640;SDS011;4358;42.100;25.222;2023-08-07T13:47:20;1.98;;;1.70;;
8640;SDS011;4358;42.100;25.222;2023-08-07T13:49:47;1.50;;;1.40;;
8640;SDS011;4358;42.100;25.222;2023-08-07T13:52:14;3.55;;;2.38;;
8640;SDS011;4358;42.100;25.222;2023-08-07T13:54:41;1.75;;;1.50;;
8640;SDS011;4358;42.100;25.222;2023-08-07T13:57:09;1.90;;;1.80;;
8640;SDS011;4358;42.100;25.222;2023-08-07T13:59:36;1.50;;;1.40;;
8640;SDS011;4358;42.100;25.222;2023-08-07T14:02:02;1.95;;;1.85;;
8640;SDS011;4358;42.100;25.222;2023-08-07T14:04:29;3.78;;;1.60;;
8640;SDS011;4358;42.100;25.222;2023-08-07T14:06:57;3.40;;;1.70;;
8640;SDS011;4358;42.100;25.222;2023-08-07T14:09:24;2.10;;;1.90;;
8640;SDS011;4358;42.100;25.222;2023-08-07T14:11:51;1.60;;;1.50;;
8640;SDS011;4358;42.100;25.222;2023-08-07T14:14:19;2.08;;;1.52;;
8640;SDS011;4358;42.100;25.222;2023-08-07T14:16:45;1.50;;;1.40;;
8640;SDS011;4358;42.100;25.222;2023-08-07T14:19:13;1.70;;;1.60;;
8640;SDS011;4358;42.100;25.222;2023-08-07T14:21:40;1.63;;;1.52;;
8640;SDS011;4358;42.100;25.222;2023-08-07T14:24:07;1.40;;;1.30;;
8640;SDS011;4358;42.100;25.222;2023-08-07T14:26:33;1.98;;;1.88;;
8640;SDS011;4358;42.100;25.222;2023-08-07T14:29:00;2.03;;;1.40;;
8640;SDS011;4358;42.100;25.222;2023-08-07T14:31:28;2.08;;;1.38;;
8640;SDS011;4358;42.100;25.222;2023-08-07T14:33:55;1.60;;;1.40;;
8640;SDS011;4358;42.100;25.222;2023-08-07T14:36:22;1.50;;;1.40;;
8640;SDS011;4358;42.100;25.222;2023-08-07T14:38:49;1.33;;;1.23;;
8640;SDS011;4358;42.100;25.222;2023-08-07T14:41:16;1.58;;;1.48;;
8640;SDS011;4358;42.100;25.222;2023-08-07T14:43:44;1.80;;;1.70;;
8640;SDS011;4358;42.100;25.222;2023-08-07T14:46:11;4.30;;;1.40;;
8640;SDS011;4358;42.100;25.222;2023-08-07T14:48:40;1.65;;;1.55;;
8640;SDS011;4358;42.100;25.222;2023-08-07T14:51:06;1.45;;;1.35;;
8640;SDS011;4358;42.100;25.222;2023-08-07T14:53:33;1.92;;;1.50;;
8640;SDS011;4358;42.100;25.222;2023-08-07T14:56:00;2.50;;;1.60;;
8640;SDS011;4358;42.100;25.222;2023-08-07T14:58:27;1.45;;;1.35;;
8640;SDS011;4358;42.100;25.222;2023-08-07T15:00:54;1.50;;;1.40;;
8640;SDS011;4358;42.100;25.222;2023-08-07T15:03:21;1.35;;;1.25;;